Time;durP1;ratioP1;P1;durP2;ratioP2;P2;SDS_P1;SDS_P2;PMS_P1;PMS_P2;Temp;Humidity;BMP_temperature;BMP_pressure;BME280_temperature;BME280_humidity;BME280_pressure;Samples;Min_cycle;Max_cycle;Signal;HPM_P1;HPM_P2
2021/12/11 00:01:24;;;;;;;27.43;14.37;;;;;;;-7.22;100.00;95147.34;10609788;28;20177;-65
2021/12/11 00:06:29;;;;;;;30.37;15.20;;;;;;;-7.44;100.00;95154.53;10609378;28;20185;-62
2021/12/11 00:11:34;;;;;;;33.77;15.80;;;;;;;-7.41;100.00;95162.00;10609159;28;20198;-64
2021/12/11 00:16:36;;;;;;;31.30;16.10;;;;;;;-7.18;100.00;95151.34;10609155;28;20222;-63
2021/12/11 00:21:39;;;;;;;33.43;14.53;;;;;;;-6.73;100.00;95153.06;10608731;28;20176;-64
2021/12/11 00:26:43;;;;;;;33.50;15.70;;;;;;;-6.17;100.00;95143.75;10608898;28;20177;-64
2021/12/11 00:31:47;;;;;;;31.30;15.23;;;;;;;-5.48;100.00;95159.03;10611598;28;20367;-63
2021/12/11 00:36:50;;;;;;;27.77;14.57;;;;;;;-5.20;100.00;95164.91;10617303;28;20185;-62
2021/12/11 00:41:55;;;;;;;33.17;14.57;;;;;;;-4.97;100.00;95168.53;10617379;28;20177;-63
2021/12/11 00:47:07;;;;;;;28.40;13.70;;;;;;;-4.90;100.00;95180.00;10617133;28;20170;-63
2021/12/11 00:52:08;;;;;;;24.33;13.17;;;;;;;-4.81;100.00;95188.75;10617392;28;20249;-60
2021/12/11 00:57:13;;;;;;;20.33;10.87;;;;;;;-4.61;100.00;95201.97;10616667;28;20245;-62
2021/12/11 01:02:13;;;;;;;22.47;12.23;;;;;;;-4.64;100.00;95215.75;10616376;28;20165;-61
2021/12/11 01:07:19;;;;;;;23.13;10.53;;;;;;;-4.45;100.00;95217.94;10616405;28;20170;-61
2021/12/11 01:12:25;;;;;;;21.97;12.37;;;;;;;-4.50;100.00;95240.44;10616194;28;20197;-61
2021/12/11 01:17:58;;;;;;;18.50;10.13;;;;;;;-4.35;100.00;95236.84;10615754;28;20463;-61
2021/12/11 01:22:58;;;;;;;23.27;11.40;;;;;;;-4.30;100.00;95250.16;10615416;28;20189;-61
2021/12/11 01:28:02;;;;;;;17.47;9.60;;;;;;;-4.04;100.00;95256.97;10615979;28;20188;-61
2021/12/11 01:33:04;;;;;;;21.83;10.93;;;;;;;-3.91;100.00;95267.22;10614406;28;20232;-62
2021/12/11 01:38:18;;;;;;;17.63;7.80;;;;;;;-3.82;100.00;95271.72;10615076;28;20377;-61
2021/12/11 01:43:21;;;;;;;22.23;10.40;;;;;;;-3.79;100.00;95279.19;10613886;27;20170;-59
2021/12/11 01:48:34;;;;;;;24.20;10.53;;;;;;;-3.70;100.00;95280.28;10614783;28;20158;-60
2021/12/11 01:53:42;;;;;;;22.03;11.80;;;;;;;-3.72;100.00;95284.69;10614584;28;20174;-60
2021/12/11 01:58:55;;;;;;;24.57;12.37;;;;;;;-3.76;100.00;95294.31;10614468;28;20168;-63
2021/12/11 02:03:57;;;;;;;19.90;10.90;;;;;;;-3.53;100.00;95287.63;10613553;28;20170;-63
2021/12/11 02:08:58;;;;;;;18.73;11.73;;;;;;;-3.72;100.00;95306.00;10613753;28;20350;-60
2021/12/11 02:14:03;;;;;;;26.40;12.63;;;;;;;-3.58;100.00;95307.63;10595994;28;20240;-61
2021/12/11 02:19:07;;;;;;;23.97;11.73;;;;;;;-3.70;100.00;95311.81;10613415;28;20267;-63
2021/12/11 02:24:14;;;;;;;24.20;10.83;;;;;;;-3.73;100.00;95324.00;10612531;28;20189;-61
2021/12/11 02:29:25;;;;;;;21.27;9.83;;;;;;;-3.67;100.00;95329.53;10611959;28;20250;-62
2021/12/11 02:34:37;;;;;;;26.20;12.13;;;;;;;-3.78;100.00;95340.47;10594402;28;20286;-61
2021/12/11 02:39:44;;;;;;;23.20;11.43;;;;;;;-3.66;100.00;95346.53;10612319;28;20394;-64
2021/12/11 02:45:00;;;;;;;27.23;12.00;;;;;;;-3.82;100.00;95353.56;10612371;28;20189;-62
2021/12/11 02:50:11;;;;;;;25.13;13.10;;;;;;;-3.85;100.00;95361.47;10612292;28;20383;-60
2021/12/11 02:55:22;;;;;;;24.20;11.83;;;;;;;-3.85;100.00;95362.25;10611908;28;20273;-61
2021/12/11 03:00:26;;;;;;;23.37;12.70;;;;;;;-3.94;100.00;95368.00;10611780;28;20170;-61
2021/12/11 03:05:36;;;;;;;23.73;12.43;;;;;;;-3.96;100.00;95382.63;10611738;28;20188;-61
2021/12/11 03:10:38;;;;;;;25.37;11.60;;;;;;;-3.87;100.00;95391.44;10611743;28;20250;-61
2021/12/11 03:15:38;;;;;;;23.10;11.40;;;;;;;-3.89;100.00;95399.22;10610685;28;20228;-61
2021/12/11 03:20:42;;;;;;;26.07;11.13;;;;;;;-4.10;100.00;95416.78;10611401;28;20237;-62
2021/12/11 03:25:44;;;;;;;27.23;12.83;;;;;;;-4.15;100.00;95416.25;10610825;28;20165;-65
2021/12/11 03:30:56;;;;;;;20.20;11.47;;;;;;;-4.13;100.00;95429.75;10610188;28;20239;-65
2021/12/11 03:35:57;;;;;;;17.10;9.07;;;;;;;-4.16;100.00;95442.75;10610594;28;20178;-65
2021/12/11 03:40:57;;;;;;;29.70;13.20;;;;;;;-4.46;100.00;95448.88;10610167;28;20170;-62
2021/12/11 03:46:02;;;;;;;24.27;11.13;;;;;;;-4.30;100.00;95459.78;10610206;28;20170;-65
2021/12/11 03:51:05;;;;;;;31.33;13.80;;;;;;;-4.43;100.00;95471.69;10610080;28;20201;-63
2021/12/11 03:56:08;;;;;;;30.27;14.47;;;;;;;-4.56;100.00;95473.38;10609598;28;20280;-62
2021/12/11 04:01:13;;;;;;;33.40;15.10;;;;;;;-4.59;100.00;95478.66;10609611;28;20177;-63
2021/12/11 04:06:14;;;;;;;33.23;16.03;;;;;;;-4.91;100.00;95492.47;10568785;28;20182;-65
2021/12/11 04:11:19;;;;;;;35.97;16.77;;;;;;;-4.94;100.00;95497.75;10560656;28;20202;-64
2021/12/11 04:16:19;;;;;;;32.80;16.90;;;;;;;-5.04;100.00;95510.28;10561083;28;20221;-61
2021/12/11 04:21:20;;;;;;;38.47;19.17;;;;;;;-5.08;100.00;95515.66;10561300;28;20170;-63
2021/12/11 04:26:21;;;;;;;37.70;17.07;;;;;;;-5.13;100.00;95507.44;10559990;28;20222;-61
2021/12/11 04:31:26;;;;;;;36.07;16.57;;;;;;;-5.20;100.00;95517.19;10560733;28;20216;-60
2021/12/11 04:36:30;;;;;;;38.73;17.70;;;;;;;-5.11;100.00;95534.53;10560529;28;20182;-63
2021/12/11 04:41:39;;;;;;;40.83;16.70;;;;;;;-5.08;100.00;95534.34;10559818;28;20510;-62
2021/12/11 04:46:40;;;;;;;36.90;16.73;;;;;;;-5.00;100.00;95544.09;10560746;28;20186;-61
2021/12/11 04:51:58;;;;;;;38.67;16.20;;;;;;;-4.97;100.00;95551.59;10560183;28;20197;-63
2021/12/11 05:02:36;;;;;;;35.80;16.57;;;;;;;-4.92;100.00;95579.41;10561806;28;20162;-60
2021/12/11 05:12:35;;;;;;;33.07;15.50;;;;;;;-4.90;100.00;95592.91;10565419;28;20329;-64
2021/12/11 05:17:36;;;;;;;31.33;13.00;;;;;;;-5.00;100.00;95612.25;10568304;28;20261;-61
2021/12/11 05:22:37;;;;;;;30.30;13.87;;;;;;;-5.12;100.00;95613.75;10573039;28;20180;-62
2021/12/11 05:27:39;;;;;;;29.13;13.97;;;;;;;-5.26;100.00;95622.22;10573485;28;20184;-62
2021/12/11 05:32:40;;;;;;;32.00;15.03;;;;;;;-5.21;100.00;95633.81;10572989;28;20205;-62
2021/12/11 05:37:40;;;;;;;27.83;12.57;;;;;;;-5.19;100.00;95641.38;10572153;28;20189;-64
2021/12/11 05:42:41;;;;;;;22.60;11.07;;;;;;;-5.24;100.00;95648.47;10573010;28;20174;-62
2021/12/11 05:47:42;;;;;;;20.67;10.27;;;;;;;-5.49;100.00;95654.13;10572503;28;20167;-63
2021/12/11 05:52:42;;;;;;;62.67;27.03;;;;;;;-5.68;100.00;95670.44;10572428;28;20434;-60
2021/12/11 05:57:50;;;;;;;59.83;26.67;;;;;;;-5.45;100.00;95674.28;10571933;28;20167;-61
2021/12/11 06:02:51;;;;;;;26.83;12.87;;;;;;;-5.41;100.00;95683.38;10572277;28;20177;-62
2021/12/11 06:07:52;;;;;;;24.23;11.40;;;;;;;-5.32;100.00;95686.38;10571351;28;20170;-60
2021/12/11 06:12:55;;;;;;;26.80;9.37;;;;;;;-5.23;100.00;95696.06;10571790;28;20278;-60
2021/12/11 06:17:56;;;;;;;29.53;12.83;;;;;;;-5.08;100.00;95705.41;10571334;28;20263;-62
2021/12/11 06:22:56;;;;;;;23.13;12.10;;;;;;;-4.91;100.00;95719.78;10570663;28;20240;-62
2021/12/11 06:27:57;;;;;;;23.60;13.23;;;;;;;-4.86;100.00;95717.78;10570893;28;20327;-62
2021/12/11 06:32:57;;;;;;;28.67;12.57;;;;;;;-4.74;100.00;95731.59;10570203;28;20209;-60
2021/12/11 06:37:58;;;;;;;25.80;13.27;;;;;;;-4.71;100.00;95741.66;10570129;28;20380;-63
2021/12/11 06:42:59;;;;;;;29.83;10.87;;;;;;;-4.56;100.00;95752.75;10570238;28;20193;-61
2021/12/11 06:47:59;;;;;;;25.23;11.73;;;;;;;-4.28;100.00;95761.38;10570631;28;20241;-62
2021/12/11 06:53:04;;;;;;;24.77;11.77;;;;;;;-4.00;100.00;95777.66;10569395;28;20266;-62
2021/12/11 06:58:04;;;;;;;27.27;12.00;;;;;;;-3.97;100.00;95780.84;10552667;28;20279;-65
2021/12/11 07:03:05;;;;;;;21.77;11.47;;;;;;;-3.99;100.00;95787.78;10569765;28;20167;-66
2021/12/11 07:08:07;;;;;;;24.37;11.60;;;;;;;-4.00;100.00;95788.69;10569083;28;20242;-61
2021/12/11 07:13:08;;;;;;;22.83;11.17;;;;;;;-3.97;100.00;95808.97;10569199;28;20265;-62
2021/12/11 07:18:09;;;;;;;21.33;10.93;;;;;;;-3.88;100.00;95817.84;10568955;28;20226;-61
2021/12/11 07:23:10;;;;;;;28.80;13.50;;;;;;;-3.80;100.00;95819.97;10574055;28;20162;-63
2021/12/11 07:28:11;;;;;;;26.63;13.77;;;;;;;-3.70;100.00;95833.06;10609514;28;20189;-61
2021/12/11 07:33:12;;;;;;;35.50;18.40;;;;;;;-3.55;100.00;95841.53;10609165;28;20204;-64
2021/12/11 07:38:14;;;;;;;44.17;24.23;;;;;;;-3.40;100.00;95850.84;10610698;28;20178;-65
2021/12/11 07:43:16;;;;;;;39.57;19.63;;;;;;;-3.35;100.00;95866.78;10607443;27;20240;-65
2021/12/11 07:48:16;;;;;;;31.63;14.80;;;;;;;-3.25;100.00;95862.78;10608501;28;20272;-64
2021/12/11 07:53:18;;;;;;;31.70;15.90;;;;;;;-3.14;100.00;95867.25;10607526;28;20209;-65
2021/12/11 07:58:20;;;;;;;29.70;16.27;;;;;;;-3.13;100.00;95881.66;10604541;28;20177;-64
2021/12/11 08:03:20;;;;;;;31.40;16.00;;;;;;;-3.02;100.00;95895.56;10614161;27;20526;-65
2021/12/11 08:08:21;;;;;;;65.60;32.20;;;;;;;-2.96;100.00;95916.50;10649783;27;20192;-65
2021/12/11 08:13:24;;;;;;;32.40;17.67;;;;;;;-2.82;100.00;95914.84;10649889;27;20354;-64
2021/12/11 08:18:26;;;;;;;32.37;15.53;;;;;;;-2.66;100.00;95919.84;10637880;27;20460;-62
2021/12/11 08:23:26;;;;;;;33.03;16.90;;;;;;;-2.40;100.00;95933.63;10595630;28;20178;-62
2021/12/11 08:28:30;;;;;;;34.30;17.27;;;;;;;-2.22;100.00;95945.31;10607172;28;20223;-64
2021/12/11 08:33:31;;;;;;;30.13;16.23;;;;;;;-1.92;100.00;95951.16;10605173;28;20202;-65
2021/12/11 08:38:31;;;;;;;37.67;21.17;;;;;;;-1.69;100.00;95963.31;10581037;28;20281;-66
2021/12/11 08:43:32;;;;;;;29.13;14.63;;;;;;;-1.46;100.00;95969.50;10563083;28;20182;-66
2021/12/11 08:48:32;;;;;;;37.77;18.10;;;;;;;-1.28;100.00;95976.94;10564479;28;20201;-64
2021/12/11 08:53:33;;;;;;;20.50;12.13;;;;;;;-1.15;100.00;95993.19;10594942;28;20201;-64
2021/12/11 08:58:34;;;;;;;21.80;12.67;;;;;;;-1.16;100.00;96003.56;10614519;28;20406;-65
2021/12/11 09:04:10;;;;;;;23.80;10.70;;;;;;;-1.16;100.00;96011.28;10614249;28;20201;-64
2021/12/11 09:09:23;;;;;;;16.80;9.73;;;;;;;-1.13;100.00;96021.38;10595523;28;20210;-64
2021/12/11 09:14:30;;;;;;;17.53;9.00;;;;;;;-0.93;100.00;96027.75;10613269;28;20207;-64
2021/12/11 09:19:36;;;;;;;19.10;10.90;;;;;;;-0.89;100.00;96036.88;10614615;28;20162;-64
2021/12/11 09:24:42;;;;;;;20.27;10.60;;;;;;;-0.69;100.00;96042.44;10610047;28;20234;-64
2021/12/11 09:29:53;;;;;;;21.90;10.97;;;;;;;-0.94;100.00;96039.75;10610600;28;20198;-62
2021/12/11 09:34:58;;;;;;;23.03;10.80;;;;;;;-1.07;100.00;96062.09;10612627;28;20193;-62
2021/12/11 09:40:22;;;;;;;24.03;12.23;;;;;;;-1.06;100.00;96074.00;10612890;28;20288;-64
2021/12/11 09:45:27;;;;;;;22.07;12.00;;;;;;;-0.80;100.00;96087.69;10611345;28;20276;-63
2021/12/11 09:50:32;;;;;;;23.50;12.70;;;;;;;-0.77;100.00;96087.47;10612308;28;20206;-61
2021/12/11 09:55:37;;;;;;;19.10;11.53;;;;;;;-0.97;100.00;96085.41;10611734;28;20312;-61
2021/12/11 10:00:51;;;;;;;25.57;13.23;;;;;;;-1.38;100.00;96091.50;10611253;28;20162;-61
2021/12/11 10:06:00;;;;;;;20.27;11.90;;;;;;;-1.09;100.00;96094.75;10609519;28;20170;-61
2021/12/11 10:11:09;;;;;;;26.80;13.37;;;;;;;-0.85;100.00;96105.19;10611655;28;20196;-59
2021/12/11 10:16:10;;;;;;;30.03;17.57;;;;;;;-0.09;100.00;96118.97;10608507;28;20218;-57
2021/12/11 10:21:22;;;;;;;19.47;11.97;;;;;;;0.33;100.00;96127.19;10607232;28;20175;-56
2021/12/11 10:26:25;;;;;;;22.03;12.73;;;;;;;0.25;100.00;96139.81;10607622;28;20353;-61
2021/12/11 10:31:33;;;;;;;20.97;12.77;;;;;;;0.65;100.00;96147.28;10606977;28;20198;-63
2021/12/11 10:36:39;;;;;;;21.57;13.20;;;;;;;0.91;100.00;96146.38;10608000;28;20168;-61
2021/12/11 10:41:40;;;;;;;20.47;13.30;;;;;;;0.17;100.00;96163.53;10608461;28;20328;-62
2021/12/11 10:46:45;;;;;;;20.93;13.67;;;;;;;0.65;100.00;96169.69;10609403;28;20177;-60
2021/12/11 10:51:52;;;;;;;27.57;14.83;;;;;;;0.16;100.00;96171.34;10607261;28;20223;-61
2021/12/11 10:56:53;;;;;;;24.33;13.73;;;;;;;-0.21;100.00;96181.59;10609864;28;20218;-60
2021/12/11 11:02:03;;;;;;;25.83;15.80;;;;;;;-0.59;100.00;96208.09;10611149;28;20187;-60
2021/12/11 11:07:04;;;;;;;25.57;14.53;;;;;;;-0.29;100.00;96201.84;10611035;28;20181;-61
2021/12/11 11:12:09;;;;;;;30.10;13.90;;;;;;;-0.44;100.00;96211.44;10603697;28;20213;-60
2021/12/11 11:17:13;;;;;;;24.73;14.13;;;;;;;-0.46;100.00;96229.53;10589773;28;20333;-62
2021/12/11 11:22:21;;;;;;;30.63;16.70;;;;;;;-0.78;100.00;96237.59;10607360;28;20223;-63
2021/12/11 11:27:22;;;;;;;29.47;16.37;;;;;;;-0.32;100.00;96244.06;10608910;28;20183;-61
2021/12/11 11:32:31;;;;;;;31.17;16.40;;;;;;;-0.73;100.00;96243.25;10609870;28;20194;-64
2021/12/11 11:37:34;;;;;;;35.30;16.40;;;;;;;-0.66;100.00;96250.56;10609879;28;20207;-64
2021/12/11 11:42:36;;;;;;;31.83;16.40;;;;;;;-0.51;100.00;96271.91;10590507;28;20391;-64
2021/12/11 11:47:36;;;;;;;30.37;17.47;;;;;;;-1.17;100.00;96280.28;10609131;28;20221;-64
2021/12/11 11:52:38;;;;;;;31.33;16.73;;;;;;;-1.10;100.00;96291.84;10609524;28;20413;-63
2021/12/11 11:57:41;;;;;;;36.33;16.33;;;;;;;-1.31;100.00;96300.88;10608165;28;20227;-64
2021/12/11 12:02:42;;;;;;;30.83;17.37;;;;;;;-1.08;100.00;96308.00;10608705;28;20166;-66
2021/12/11 12:07:42;;;;;;;35.67;16.63;;;;;;;-1.01;100.00;96312.75;10606682;28;20181;-64
2021/12/11 12:12:43;;;;;;;31.90;18.43;;;;;;;-1.18;100.00;96312.06;10595881;28;20197;-64
2021/12/11 12:17:43;;;;;;;31.23;17.00;;;;;;;-1.17;100.00;96313.69;10598947;28;20225;-65
2021/12/11 12:22:46;;;;;;;26.40;14.43;;;;;;;-0.79;100.00;96327.69;10599918;28;20170;-65
2021/12/11 12:27:47;;;;;;;24.97;14.10;;;;;;;-0.73;100.00;96327.31;10598615;28;20202;-67
2021/12/11 12:32:51;;;;;;;28.33;15.23;;;;;;;-0.90;100.00;96336.91;10598375;28;20690;-65
2021/12/11 12:37:51;;;;;;;24.87;13.40;;;;;;;-0.56;100.00;96350.22;10599150;28;20404;-65
2021/12/11 12:42:55;;;;;;;22.57;12.60;;;;;;;-0.56;100.00;96359.69;10601392;28;20185;-66
2021/12/11 12:48:01;;;;;;;23.30;12.40;;;;;;;-0.77;100.00;96375.53;10600482;28;20181;-65
2021/12/11 12:53:02;;;;;;;21.87;11.47;;;;;;;-0.53;100.00;96380.06;10600443;28;20269;-67
2021/12/11 12:58:09;;;;;;;18.97;11.53;;;;;;;-0.28;100.00;96383.66;10599868;28;20164;-64
2021/12/11 13:03:15;;;;;;;27.33;13.37;;;;;;;-0.33;100.00;96396.81;10598224;28;20177;-64
2021/12/11 13:08:21;;;;;;;23.63;12.93;;;;;;;-0.15;100.00;96406.88;10600660;28;20393;-66
2021/12/11 13:13:24;;;;;;;26.40;15.60;;;;;;;-0.30;100.00;96406.13;10600607;28;20268;-64
2021/12/11 13:18:29;;;;;;;24.20;13.67;;;;;;;-0.34;100.00;96414.94;10600243;28;20225;-64
2021/12/11 13:23:32;;;;;;;24.70;12.73;;;;;;;-0.49;100.00;96414.16;10599745;28;20166;-65
2021/12/11 13:28:38;;;;;;;26.57;16.77;;;;;;;-0.64;100.00;96418.53;10599855;28;20174;-64
2021/12/11 13:33:41;;;;;;;19.07;10.87;;;;;;;-0.74;100.00;96426.75;10600888;28;20234;-66
2021/12/11 13:38:42;;;;;;;23.70;13.00;;;;;;;-1.01;100.00;96441.28;10600498;28;20385;-65
2021/12/11 13:43:43;;;;;;;21.33;12.20;;;;;;;-0.55;100.00;96444.50;10608150;28;20391;-66
2021/12/11 13:48:44;;;;;;;20.70;11.60;;;;;;;-1.01;100.00;96460.13;10607996;28;20189;-64
2021/12/11 13:53:45;;;;;;;18.47;9.33;;;;;;;-0.85;100.00;96479.78;10606378;28;20392;-66
2021/12/11 13:58:46;;;;;;;19.00;10.47;;;;;;;-0.83;100.00;96489.03;10607571;28;20241;-64
2021/12/11 14:03:46;;;;;;;18.13;9.67;;;;;;;-0.67;100.00;96488.13;10606383;28;20293;-64
2021/12/11 14:08:48;;;;;;;16.83;10.10;;;;;;;-0.66;100.00;96495.78;10606010;28;20169;-67
2021/12/11 14:13:48;;;;;;;14.83;8.80;;;;;;;-0.48;100.00;96506.69;10605680;28;20178;-65
2021/12/11 14:18:49;;;;;;;14.47;8.23;;;;;;;-0.48;100.00;96524.69;10605925;28;20440;-67
2021/12/11 14:23:51;;;;;;;12.10;7.13;;;;;;;-0.52;100.00;96533.53;10605833;28;20169;-64
2021/12/11 14:28:53;;;;;;;13.63;7.80;;;;;;;-0.72;100.00;96539.84;10605718;28;20337;-65
2021/12/11 14:33:54;;;;;;;14.73;8.00;;;;;;;-0.72;100.00;96548.41;10605602;28;20373;-64
2021/12/11 14:39:03;;;;;;;28.97;13.83;;;;;;;-0.74;100.00;96545.09;10605660;28;20177;-65
2021/12/11 14:44:09;;;;;;;24.37;11.23;;;;;;;-0.61;100.00;96536.66;10605480;28;20166;-64
2021/12/11 14:49:09;;;;;;;23.63;10.13;;;;;;;-0.76;100.00;96548.69;10603787;28;20216;-64
2021/12/11 14:54:10;;;;;;;20.60;11.87;;;;;;;-0.98;100.00;96549.09;10605193;28;20226;-62
2021/12/11 14:59:15;;;;;;;16.93;9.83;;;;;;;-0.92;100.00;96559.88;10604661;28;20170;-64
2021/12/11 15:04:21;;;;;;;17.03;9.83;;;;;;;-0.72;100.00;96566.41;10604069;28;20181;-64
2021/12/11 15:09:22;;;;;;;17.23;9.07;;;;;;;-0.69;100.00;96578.25;10604556;28;20256;-62
2021/12/11 15:14:23;;;;;;;15.50;8.27;;;;;;;-0.70;100.00;96584.34;10603679;28;20166;-65
2021/12/11 15:19:24;;;;;;;13.93;7.90;;;;;;;-0.73;100.00;96589.66;10601641;28;20188;-63
2021/12/11 15:24:24;;;;;;;14.87;7.70;;;;;;;-0.79;100.00;96611.41;10602608;28;20241;-65
2021/12/11 15:29:25;;;;;;;13.83;7.17;;;;;;;-0.73;100.00;96612.81;10601906;28;20424;-67
2021/12/11 15:34:28;;;;;;;13.37;8.00;;;;;;;-0.90;100.00;96619.75;10601204;28;20174;-64
2021/12/11 15:39:36;;;;;;;16.83;8.33;;;;;;;-0.81;100.00;96630.41;10603343;28;20250;-64
2021/12/11 15:44:45;;;;;;;15.43;8.23;;;;;;;-0.74;100.00;96635.09;10602940;28;20499;-63
2021/12/11 15:49:46;;;;;;;13.70;7.10;;;;;;;-0.58;100.00;96649.69;10602442;28;20197;-67
2021/12/11 15:54:46;;;;;;;13.97;8.17;;;;;;;-0.66;100.00;96655.28;10602259;28;20389;-64
2021/12/11 15:59:48;;;;;;;15.87;8.57;;;;;;;-0.71;100.00;96662.41;10601573;28;20177;-63
2021/12/11 16:04:49;;;;;;;19.63;9.90;;;;;;;-0.63;100.00;96664.53;10601028;28;20211;-66
2021/12/11 16:09:50;;;;;;;17.60;10.17;;;;;;;-0.78;100.00;96671.38;10590866;28;20197;-64
2021/12/11 16:14:51;;;;;;;13.67;9.23;;;;;;;-0.64;100.00;96678.34;10608261;28;20225;-63
2021/12/11 16:19:54;;;;;;;18.30;10.10;;;;;;;-0.70;100.00;96678.66;10608855;28;20229;-64
2021/12/11 16:25:04;;;;;;;17.17;9.53;;;;;;;-0.69;100.00;96680.31;10608487;28;20158;-65
2021/12/11 16:30:07;;;;;;;18.77;11.93;;;;;;;-0.59;100.00;96679.72;10608919;28;20197;-63
2021/12/11 16:35:08;;;;;;;18.27;9.97;;;;;;;-0.49;100.00;96698.03;10608517;28;20177;-65
2021/12/11 16:40:16;;;;;;;15.97;8.10;;;;;;;-0.64;100.00;96707.44;10609150;28;20158;-66
2021/12/11 16:45:17;;;;;;;18.80;9.23;;;;;;;-0.67;100.00;96702.47;10608186;28;20167;-65
2021/12/11 16:50:19;;;;;;;13.63;8.10;;;;;;;-0.56;100.00;96714.72;10607409;28;20390;-65
2021/12/11 16:55:19;;;;;;;23.47;9.77;;;;;;;-0.65;100.00;96716.06;10608376;28;20280;-64
2021/12/11 17:00:22;;;;;;;16.20;7.90;;;;;;;-0.55;100.00;96726.69;10608104;28;20166;-64
2021/12/11 17:05:23;;;;;;;14.43;7.83;;;;;;;-0.64;100.00;96735.75;10607926;28;20181;-65
2021/12/11 17:10:29;;;;;;;36.33;17.80;;;;;;;-0.60;100.00;96751.84;10608304;28;20202;-63
2021/12/11 17:15:29;;;;;;;17.00;9.57;;;;;;;-0.55;100.00;96752.41;10613311;28;20221;-65
2021/12/11 17:20:30;;;;;;;30.87;17.00;;;;;;;-0.81;100.00;96756.44;10615868;28;20276;-64
2021/12/11 17:25:36;;;;;;;19.27;10.87;;;;;;;-0.80;100.00;96761.47;10616215;28;20171;-63
2021/12/11 17:30:37;;;;;;;16.00;9.13;;;;;;;-0.79;100.00;96764.91;10615257;28;20497;-65
2021/12/11 17:35:38;;;;;;;16.87;9.80;;;;;;;-0.60;100.00;96775.84;10615819;28;20219;-62
2021/12/11 17:40:39;;;;;;;28.40;14.87;;;;;;;-0.62;100.00;96787.94;10615185;28;20416;-63
2021/12/11 17:45:40;;;;;;;21.30;9.97;;;;;;;-0.58;100.00;96789.44;10615348;28;20173;-63
2021/12/11 17:50:49;;;;;;;19.97;10.23;;;;;;;-0.54;100.00;96805.53;10614559;28;20232;-62
2021/12/11 17:55:52;;;;;;;15.33;8.83;;;;;;;-0.56;100.00;96815.06;10614817;28;20176;-62
2021/12/11 18:01:01;;;;;;;15.40;8.40;;;;;;;-0.55;100.00;96811.59;10614026;28;20190;-62
2021/12/11 18:06:04;;;;;;;15.33;8.80;;;;;;;-0.44;100.00;96808.44;10614495;28;20291;-63
2021/12/11 18:11:08;;;;;;;14.30;7.77;;;;;;;-0.58;100.00;96822.06;10613606;28;20193;-65
2021/12/11 18:16:37;;;;;;;14.87;8.90;;;;;;;-0.47;100.00;96824.03;10614030;28;20245;-62
2021/12/11 18:21:50;;;;;;;15.90;8.53;;;;;;;-0.45;100.00;96830.72;10602567;28;20392;-64
2021/12/11 18:26:54;;;;;;;14.27;8.80;;;;;;;-0.42;100.00;96845.19;10612381;28;20189;-63
2021/12/11 18:31:57;;;;;;;17.50;9.43;;;;;;;-0.48;100.00;96850.69;10613539;28;20254;-64
2021/12/11 18:37:02;;;;;;;15.13;9.17;;;;;;;-0.42;100.00;96855.47;10613050;28;20223;-65
2021/12/11 18:42:10;;;;;;;17.97;9.47;;;;;;;-0.43;100.00;96862.38;10613022;28;20407;-63
2021/12/11 18:47:11;;;;;;;18.53;9.50;;;;;;;-0.36;100.00;96868.81;10612417;28;20233;-63
2021/12/11 18:52:21;;;;;;;14.67;8.23;;;;;;;-0.42;100.00;96861.44;10612907;28;20208;-65
2021/12/11 18:57:25;;;;;;;15.27;8.07;;;;;;;-0.30;100.00;96864.28;10611574;28;20623;-65
2021/12/11 19:02:30;;;;;;;14.93;8.10;;;;;;;-0.36;100.00;96858.53;10612045;28;20342;-63
2021/12/11 19:07:31;;;;;;;13.57;8.37;;;;;;;-0.56;100.00;96869.09;10612002;28;20163;-65
2021/12/11 19:12:34;;;;;;;22.97;12.53;;;;;;;-0.55;100.00;96873.34;10610929;28;20189;-64
2021/12/11 19:17:35;;;;;;;35.73;18.40;;;;;;;-0.58;100.00;96876.91;10610408;28;20233;-65
2021/12/11 19:22:35;;;;;;;18.20;10.60;;;;;;;-0.38;100.00;96870.66;10610688;28;20444;-65
2021/12/11 19:27:38;;;;;;;21.67;13.10;;;;;;;-0.35;100.00;96877.41;10610182;28;20181;-63
2021/12/11 19:32:39;;;;;;;17.03;10.40;;;;;;;-0.44;100.00;96883.88;10610120;28;20200;-62
2021/12/11 19:37:41;;;;;;;23.37;11.27;;;;;;;-0.52;100.00;96896.34;10610025;28;20176;-65
2021/12/11 19:42:41;;;;;;;21.60;12.27;;;;;;;-0.37;100.00;96904.94;10609165;28;20171;-63
2021/12/11 19:47:42;;;;;;;11.63;6.73;;;;;;;-0.25;100.00;96913.75;10609906;28;20173;-65
2021/12/11 19:52:43;;;;;;;16.90;9.73;;;;;;;-0.38;100.00;96914.41;10608610;28;20280;-61
2021/12/11 19:57:46;;;;;;;10.50;6.67;;;;;;;-0.27;100.00;96906.09;10609366;28;20188;-64
2021/12/11 20:02:48;;;;;;;12.80;7.00;;;;;;;-0.44;100.00;96912.19;10608553;28;20175;-65
2021/12/11 20:07:52;;;;;;;17.33;9.47;;;;;;;-0.53;100.00;96925.53;10608777;28;20234;-63
2021/12/11 20:13:14;;;;;;;13.43;7.00;;;;;;;-0.29;100.00;96935.41;10608452;28;20250;-63
2021/12/11 20:18:19;;;;;;;15.50;7.60;;;;;;;-0.53;100.00;96935.03;10608380;28;20424;-61
2021/12/11 20:23:20;;;;;;;34.10;19.40;;;;;;;-0.42;100.00;96948.13;10607861;28;20174;-65
2021/12/11 20:28:22;;;;;;;15.63;8.93;;;;;;;-0.54;100.00;96947.03;10608394;28;20232;-65
2021/12/11 20:33:23;;;;;;;12.87;7.97;;;;;;;-0.68;100.00;96954.66;10608290;28;20197;-62
2021/12/11 20:38:24;;;;;;;16.93;9.37;;;;;;;-0.82;100.00;96966.50;10607692;28;20173;-62
2021/12/11 20:43:25;;;;;;;15.90;8.77;;;;;;;-0.48;100.00;96969.06;10608182;28;20233;-64
2021/12/11 20:48:26;;;;;;;16.70;9.30;;;;;;;-0.78;100.00;96980.03;10610098;28;20166;-64
2021/12/11 20:53:30;;;;;;;18.13;9.20;;;;;;;-0.78;100.00;96977.44;10616279;28;20308;-64
2021/12/11 20:58:30;;;;;;;13.50;9.37;;;;;;;-0.96;100.00;96982.66;10615547;28;20173;-62
2021/12/11 21:03:34;;;;;;;17.20;8.80;;;;;;;-0.75;100.00;96992.72;10616076;28;20162;-61
2021/12/11 21:08:35;;;;;;;11.07;7.30;;;;;;;-0.61;100.00;96992.03;10615487;28;20241;-63
2021/12/11 21:13:38;;;;;;;16.13;8.77;;;;;;;-0.67;100.00;96995.75;10615483;28;20435;-62
2021/12/11 21:18:44;;;;;;;16.03;8.17;;;;;;;-0.77;100.00;97005.66;10615246;28;20281;-63
2021/12/11 21:24:06;;;;;;;13.13;7.67;;;;;;;-0.66;100.00;97018.00;10615040;28;20214;-65
2021/12/11 21:29:10;;;;;;;13.27;7.43;;;;;;;-0.77;100.00;97020.28;10614576;28;20182;-63
2021/12/11 21:34:10;;;;;;;11.70;7.53;;;;;;;-0.70;100.00;97021.63;10614634;28;20229;-62
2021/12/11 21:39:15;;;;;;;13.13;7.27;;;;;;;-0.81;100.00;97034.19;10614551;28;20379;-64
2021/12/11 21:44:18;;;;;;;13.33;7.10;;;;;;;-1.09;100.00;97044.16;10615401;28;20162;-63
2021/12/11 21:49:23;;;;;;;16.37;8.40;;;;;;;-1.47;100.00;97051.13;10614730;28;20194;-63
2021/12/11 21:54:29;;;;;;;14.90;8.70;;;;;;;-1.66;100.00;97048.63;10614810;28;20170;-64
2021/12/11 21:59:38;;;;;;;17.10;7.87;;;;;;;-2.02;100.00;97055.41;10612896;28;20403;-62
2021/12/11 22:04:42;;;;;;;16.33;7.50;;;;;;;-2.09;100.00;97064.28;10614290;28;20174;-63
2021/12/11 22:09:45;;;;;;;13.23;7.73;;;;;;;-2.09;100.00;97073.72;10614246;28;20198;-64
2021/12/11 22:14:47;;;;;;;15.27;8.07;;;;;;;-2.47;100.00;97077.09;10613850;28;20232;-63
2021/12/11 22:19:54;;;;;;;14.73;8.43;;;;;;;-2.53;100.00;97074.78;10613407;28;20174;-64
2021/12/11 22:24:56;;;;;;;21.43;8.90;;;;;;;-2.81;100.00;97075.16;10613613;28;20170;-64
2021/12/11 22:30:00;;;;;;;14.00;7.10;;;;;;;-2.88;100.00;97072.84;10613449;28;20193;-62
2021/12/11 22:35:00;;;;;;;14.70;7.77;;;;;;;-2.93;100.00;97068.81;10612916;28;20185;-61
2021/12/11 22:40:24;;;;;;;15.83;8.43;;;;;;;-2.91;100.00;97067.84;10612932;28;20369;-64
2021/12/11 22:45:29;;;;;;;15.80;8.23;;;;;;;-2.81;100.00;97065.72;10613154;28;20170;-60
2021/12/11 22:50:38;;;;;;;15.23;7.67;;;;;;;-2.61;100.00;97067.44;10611973;28;20197;-63
2021/12/11 22:55:41;;;;;;;17.23;7.90;;;;;;;-2.58;100.00;97079.31;10612651;28;20209;-62
2021/12/11 23:01:02;;;;;;;16.07;7.40;;;;;;;-2.62;100.00;97080.31;10611915;28;20170;-63